sensor_id;sensor_type;location;lat;lon;timestamp;P1;durP1;ratioP1;P2;durP2;ratioP2
79697;SDS011;69168;42.708;23.286;2023-08-12T00:02:12;3.45;;;2.38;;
79697;SDS011;69168;42.708;23.286;2023-08-12T00:04:37;2.95;;;2.63;;
79697;SDS011;69168;42.708;23.286;2023-08-12T00:07:03;4.90;;;2.40;;
79697;SDS011;69168;42.708;23.286;2023-08-12T00:09:28;3.58;;;2.40;;
79697;SDS011;69168;42.708;23.286;2023-08-12T00:11:54;2.58;;;2.38;;
79697;SDS011;69168;42.708;23.286;2023-08-12T00:14:19;4.85;;;2.83;;
79697;SDS011;69168;42.708;23.286;2023-08-12T00:16:45;2.75;;;2.47;;
79697;SDS011;69168;42.708;23.286;2023-08-12T00:19:10;3.22;;;2.50;;
79697;SDS011;69168;42.708;23.286;2023-08-12T00:21:36;2.65;;;2.40;;
79697;SDS011;69168;42.708;23.286;2023-08-12T00:24:02;3.15;;;2.30;;
79697;SDS011;69168;42.708;23.286;2023-08-12T00:26:27;2.83;;;2.28;;
79697;SDS011;69168;42.708;23.286;2023-08-12T00:28:53;2.63;;;2.40;;
79697;SDS011;69168;42.708;23.286;2023-08-12T00:31:18;2.72;;;2.17;;
79697;SDS011;69168;42.708;23.286;2023-08-12T00:33:43;3.80;;;2.92;;
79697;SDS011;69168;42.708;23.286;2023-08-12T00:36:09;3.85;;;2.70;;
79697;SDS011;69168;42.708;23.286;2023-08-12T00:38:34;4.68;;;2.33;;
79697;SDS011;69168;42.708;23.286;2023-08-12T00:41:00;3.40;;;2.50;;
79697;SDS011;69168;42.708;23.286;2023-08-12T00:43:25;3.08;;;2.53;;
79697;SDS011;69168;42.708;23.286;2023-08-12T00:45:51;4.72;;;2.40;;
79697;SDS011;69168;42.708;23.286;2023-08-12T00:48:17;4.70;;;2.50;;
79697;SDS011;69168;42.708;23.286;2023-08-12T00:50:43;3.95;;;2.50;;
79697;SDS011;69168;42.708;23.286;2023-08-12T00:53:10;4.47;;;2.50;;
79697;SDS011;69168;42.708;23.286;2023-08-12T00:55:37;4.22;;;2.40;;
79697;SDS011;69168;42.708;23.286;2023-08-12T00:58:03;3.60;;;2.38;;
79697;SDS011;69168;42.708;23.286;2023-08-12T01:00:30;3.80;;;2.70;;
79697;SDS011;69168;42.708;23.286;2023-08-12T01:02:59;2.38;;;2.17;;
79697;SDS011;69168;42.708;23.286;2023-08-12T01:07:52;4.07;;;2.40;;
79697;SDS011;69168;42.708;23.286;2023-08-12T01:10:18;2.67;;;2.28;;
79697;SDS011;69168;42.708;23.286;2023-08-12T01:12:59;4.47;;;2.05;;
79697;SDS011;69168;42.708;23.286;2023-08-12T01:15:46;3.72;;;2.40;;
79697;SDS011;69168;42.708;23.286;2023-08-12T01:18:17;3.20;;;2.38;;
79697;SDS011;69168;42.708;23.286;2023-08-12T01:20:43;3.17;;;2.50;;
79697;SDS011;69168;42.708;23.286;2023-08-12T01:25:40;2.65;;;2.25;;
79697;SDS011;69168;42.708;23.286;2023-08-12T01:28:07;3.17;;;2.50;;
79697;SDS011;69168;42.708;23.286;2023-08-12T01:30:33;3.17;;;2.15;;
79697;SDS011;69168;42.708;23.286;2023-08-12T01:35:48;3.42;;;2.50;;
79697;SDS011;69168;42.708;23.286;2023-08-12T01:38:19;3.42;;;2.17;;
79697;SDS011;69168;42.708;23.286;2023-08-12T01:40:44;4.57;;;2.03;;
79697;SDS011;69168;42.708;23.286;2023-08-12T01:43:11;4.47;;;2.22;;
79697;SDS011;69168;42.708;23.286;2023-08-12T01:45:37;3.13;;;2.15;;
79697;SDS011;69168;42.708;23.286;2023-08-12T01:48:04;2.83;;;2.47;;
79697;SDS011;69168;42.708;23.286;2023-08-12T01:50:29;3.97;;;2.22;;
79697;SDS011;69168;42.708;23.286;2023-08-12T01:52:55;2.80;;;2.60;;
79697;SDS011;69168;42.708;23.286;2023-08-12T01:55:20;2.97;;;2.55;;
79697;SDS011;69168;42.708;23.286;2023-08-12T01:57:46;2.80;;;2.22;;
79697;SDS011;69168;42.708;23.286;2023-08-12T02:00:11;3.25;;;2.15;;
79697;SDS011;69168;42.708;23.286;2023-08-12T02:02:37;2.85;;;2.40;;
79697;SDS011;69168;42.708;23.286;2023-08-12T02:05:03;2.83;;;2.20;;
79697;SDS011;69168;42.708;23.286;2023-08-12T02:07:29;3.60;;;2.15;;
79697;SDS011;69168;42.708;23.286;2023-08-12T02:09:55;4.82;;;2.45;;
79697;SDS011;69168;42.708;23.286;2023-08-12T02:12:20;5.70;;;2.30;;
79697;SDS011;69168;42.708;23.286;2023-08-12T02:14:46;2.85;;;2.40;;
79697;SDS011;69168;42.708;23.286;2023-08-12T02:17:11;2.75;;;2.33;;
79697;SDS011;69168;42.708;23.286;2023-08-12T02:19:37;5.95;;;2.38;;
79697;SDS011;69168;42.708;23.286;2023-08-12T02:22:02;6.10;;;3.25;;
79697;SDS011;69168;42.708;23.286;2023-08-12T02:24:28;4.88;;;2.40;;
79697;SDS011;69168;42.708;23.286;2023-08-12T02:26:54;4.13;;;2.38;;
79697;SDS011;69168;42.708;23.286;2023-08-12T02:29:19;2.60;;;2.17;;
79697;SDS011;69168;42.708;23.286;2023-08-12T02:31:45;4.57;;;2.00;;
79697;SDS011;69168;42.708;23.286;2023-08-12T02:34:10;2.42;;;2.20;;
79697;SDS011;69168;42.708;23.286;2023-08-12T02:36:35;3.47;;;2.15;;
79697;SDS011;69168;42.708;23.286;2023-08-12T02:39:01;2.35;;;2.05;;
79697;SDS011;69168;42.708;23.286;2023-08-12T02:41:26;3.45;;;2.13;;
79697;SDS011;69168;42.708;23.286;2023-08-12T02:43:52;3.80;;;2.72;;
79697;SDS011;69168;42.708;23.286;2023-08-12T02:46:17;4.38;;;2.60;;
79697;SDS011;69168;42.708;23.286;2023-08-12T02:48:43;4.30;;;2.90;;
79697;SDS011;69168;42.708;23.286;2023-08-12T02:51:09;2.70;;;2.20;;
79697;SDS011;69168;42.708;23.286;2023-08-12T02:53:35;4.50;;;2.92;;
79697;SDS011;69168;42.708;23.286;2023-08-12T02:56:00;6.78;;;2.92;;
79697;SDS011;69168;42.708;23.286;2023-08-12T02:58:26;4.78;;;2.47;;
79697;SDS011;69168;42.708;23.286;2023-08-12T03:00:51;3.22;;;2.65;;
79697;SDS011;69168;42.708;23.286;2023-08-12T03:03:17;4.25;;;2.47;;
79697;SDS011;69168;42.708;23.286;2023-08-12T03:05:45;3.15;;;2.58;;
79697;SDS011;69168;42.708;23.286;2023-08-12T03:08:11;2.92;;;2.40;;
79697;SDS011;69168;42.708;23.286;2023-08-12T03:10:38;3.47;;;2.47;;
79697;SDS011;69168;42.708;23.286;2023-08-12T03:13:04;3.10;;;2.80;;
79697;SDS011;69168;42.708;23.286;2023-08-12T03:15:29;4.78;;;2.78;;
79697;SDS011;69168;42.708;23.286;2023-08-12T03:17:55;3.00;;;2.50;;
79697;SDS011;69168;42.708;23.286;2023-08-12T03:20:21;3.55;;;2.45;;
79697;SDS011;69168;42.708;23.286;2023-08-12T03:22:47;4.50;;;2.67;;
79697;SDS011;69168;42.708;23.286;2023-08-12T03:25:13;2.95;;;2.13;;
79697;SDS011;69168;42.708;23.286;2023-08-12T03:27:40;3.35;;;2.25;;
79697;SDS011;69168;42.708;23.286;2023-08-12T03:30:06;3.10;;;2.30;;
79697;SDS011;69168;42.708;23.286;2023-08-12T03:32:32;4.18;;;2.45;;
79697;SDS011;69168;42.708;23.286;2023-08-12T03:34:58;3.80;;;2.50;;
79697;SDS011;69168;42.708;23.286;2023-08-12T03:37:24;3.80;;;2.35;;
79697;SDS011;69168;42.708;23.286;2023-08-12T03:39:50;5.25;;;3.80;;
79697;SDS011;69168;42.708;23.286;2023-08-12T03:42:16;3.53;;;2.70;;
79697;SDS011;69168;42.708;23.286;2023-08-12T03:44:42;8.48;;;4.40;;
79697;SDS011;69168;42.708;23.286;2023-08-12T03:47:08;6.97;;;3.55;;
79697;SDS011;69168;42.708;23.286;2023-08-12T03:49:33;7.13;;;3.00;;
79697;SDS011;69168;42.708;23.286;2023-08-12T03:51:59;5.30;;;3.38;;
79697;SDS011;69168;42.708;23.286;2023-08-12T03:54:24;4.35;;;3.25;;
79697;SDS011;69168;42.708;23.286;2023-08-12T03:56:50;7.63;;;3.90;;
79697;SDS011;69168;42.708;23.286;2023-08-12T03:59:15;6.78;;;4.43;;
79697;SDS011;69168;42.708;23.286;2023-08-12T04:01:40;7.90;;;4.25;;
79697;SDS011;69168;42.708;23.286;2023-08-12T04:04:06;6.13;;;4.72;;
79697;SDS011;69168;42.708;23.286;2023-08-12T04:06:31;8.07;;;4.10;;
79697;SDS011;69168;42.708;23.286;2023-08-12T04:08:57;9.70;;;6.60;;
79697;SDS011;69168;42.708;23.286;2023-08-12T04:11:22;8.27;;;5.40;;
79697;SDS011;69168;42.708;23.286;2023-08-12T04:13:48;14.13;;;10.30;;
79697;SDS011;69168;42.708;23.286;2023-08-12T04:16:13;17.48;;;9.52;;
79697;SDS011;69168;42.708;23.286;2023-08-12T04:18:39;17.33;;;10.75;;
79697;SDS011;69168;42.708;23.286;2023-08-12T04:21:04;19.60;;;11.15;;
79697;SDS011;69168;42.708;23.286;2023-08-12T04:23:30;21.17;;;13.27;;
79697;SDS011;69168;42.708;23.286;2023-08-12T04:25:55;15.70;;;8.68;;
79697;SDS011;69168;42.708;23.286;2023-08-12T04:28:21;10.13;;;6.43;;
79697;SDS011;69168;42.708;23.286;2023-08-12T04:30:47;5.70;;;3.65;;
79697;SDS011;69168;42.708;23.286;2023-08-12T04:33:15;9.50;;;5.78;;
79697;SDS011;69168;42.708;23.286;2023-08-12T04:35:41;4.85;;;2.97;;
79697;SDS011;69168;42.708;23.286;2023-08-12T04:38:07;8.10;;;4.43;;
79697;SDS011;69168;42.708;23.286;2023-08-12T04:40:32;6.00;;;3.55;;
79697;SDS011;69168;42.708;23.286;2023-08-12T04:42:58;5.43;;;3.10;;
79697;SDS011;69168;42.708;23.286;2023-08-12T04:45:24;5.35;;;3.13;;
79697;SDS011;69168;42.708;23.286;2023-08-12T04:47:50;7.30;;;3.90;;
79697;SDS011;69168;42.708;23.286;2023-08-12T04:50:15;7.28;;;3.88;;
79697;SDS011;69168;42.708;23.286;2023-08-12T04:52:41;7.60;;;3.70;;
79697;SDS011;69168;42.708;23.286;2023-08-12T04:55:06;4.60;;;3.30;;
79697;SDS011;69168;42.708;23.286;2023-08-12T04:57:32;7.63;;;4.95;;
79697;SDS011;69168;42.708;23.286;2023-08-12T04:59:57;8.30;;;4.75;;
79697;SDS011;69168;42.708;23.286;2023-08-12T05:02:23;5.07;;;3.35;;
79697;SDS011;69168;42.708;23.286;2023-08-12T05:04:49;4.38;;;3.17;;
79697;SDS011;69168;42.708;23.286;2023-08-12T05:07:15;5.82;;;3.63;;
79697;SDS011;69168;42.708;23.286;2023-08-12T05:09:41;5.85;;;3.38;;
79697;SDS011;69168;42.708;23.286;2023-08-12T05:12:10;5.10;;;2.88;;
79697;SDS011;69168;42.708;23.286;2023-08-12T05:14:36;7.38;;;3.15;;
79697;SDS011;69168;42.708;23.286;2023-08-12T05:17:02;4.50;;;2.92;;
79697;SDS011;69168;42.708;23.286;2023-08-12T05:19:27;5.55;;;3.08;;
79697;SDS011;69168;42.708;23.286;2023-08-12T05:21:53;4.07;;;2.72;;
79697;SDS011;69168;42.708;23.286;2023-08-12T05:24:18;4.00;;;3.00;;
79697;SDS011;69168;42.708;23.286;2023-08-12T05:26:44;8.45;;;5.03;;
79697;SDS011;69168;42.708;23.286;2023-08-12T05:29:09;7.78;;;4.93;;
79697;SDS011;69168;42.708;23.286;2023-08-12T05:31:35;6.05;;;3.70;;
79697;SDS011;69168;42.708;23.286;2023-08-12T05:34:00;5.32;;;3.97;;
79697;SDS011;69168;42.708;23.286;2023-08-12T05:36:25;6.97;;;4.53;;
79697;SDS011;69168;42.708;23.286;2023-08-12T05:38:51;7.35;;;3.30;;
79697;SDS011;69168;42.708;23.286;2023-08-12T05:41:16;3.55;;;2.58;;
79697;SDS011;69168;42.708;23.286;2023-08-12T05:43:42;4.57;;;3.17;;
79697;SDS011;69168;42.708;23.286;2023-08-12T05:46:07;4.03;;;2.80;;
79697;SDS011;69168;42.708;23.286;2023-08-12T05:48:33;6.00;;;3.38;;
79697;SDS011;69168;42.708;23.286;2023-08-12T05:50:58;4.40;;;2.92;;
79697;SDS011;69168;42.708;23.286;2023-08-12T05:53:23;6.50;;;3.28;;
79697;SDS011;69168;42.708;23.286;2023-08-12T05:55:49;5.60;;;2.70;;
79697;SDS011;69168;42.708;23.286;2023-08-12T05:58:14;4.35;;;3.30;;
79697;SDS011;69168;42.708;23.286;2023-08-12T06:00:40;4.05;;;2.85;;
79697;SDS011;69168;42.708;23.286;2023-08-12T06:03:10;3.55;;;2.75;;
79697;SDS011;69168;42.708;23.286;2023-08-12T06:05:35;5.63;;;2.97;;
79697;SDS011;69168;42.708;23.286;2023-08-12T06:08:01;2.97;;;2.63;;
79697;SDS011;69168;42.708;23.286;2023-08-12T06:10:26;4.13;;;3.00;;
79697;SDS011;69168;42.708;23.286;2023-08-12T06:12:52;4.82;;;2.97;;
79697;SDS011;69168;42.708;23.286;2023-08-12T06:15:17;7.50;;;3.60;;
79697;SDS011;69168;42.708;23.286;2023-08-12T06:17:43;6.75;;;3.17;;
79697;SDS011;69168;42.708;23.286;2023-08-12T06:20:08;3.25;;;2.80;;
79697;SDS011;69168;42.708;23.286;2023-08-12T06:22:34;4.85;;;2.72;;
79697;SDS011;69168;42.708;23.286;2023-08-12T06:24:59;6.85;;;3.17;;
79697;SDS011;69168;42.708;23.286;2023-08-12T06:27:25;5.88;;;2.92;;
79697;SDS011;69168;42.708;23.286;2023-08-12T06:29:51;3.47;;;2.88;;
79697;SDS011;69168;42.708;23.286;2023-08-12T06:32:16;4.65;;;2.53;;
79697;SDS011;69168;42.708;23.286;2023-08-12T06:34:42;7.00;;;3.45;;
79697;SDS011;69168;42.708;23.286;2023-08-12T06:37:07;5.00;;;3.50;;
79697;SDS011;69168;42.708;23.286;2023-08-12T06:39:33;4.82;;;2.67;;
79697;SDS011;69168;42.708;23.286;2023-08-12T06:41:58;3.78;;;2.88;;
79697;SDS011;69168;42.708;23.286;2023-08-12T06:44:24;4.90;;;2.70;;
79697;SDS011;69168;42.708;23.286;2023-08-12T06:46:49;4.55;;;2.92;;
79697;SDS011;69168;42.708;23.286;2023-08-12T06:49:15;4.50;;;2.53;;
79697;SDS011;69168;42.708;23.286;2023-08-12T06:51:41;7.65;;;3.13;;
79697;SDS011;69168;42.708;23.286;2023-08-12T06:54:06;3.88;;;2.65;;
79697;SDS011;69168;42.708;23.286;2023-08-12T06:56:31;3.55;;;2.92;;
79697;SDS011;69168;42.708;23.286;2023-08-12T06:58:57;4.22;;;2.88;;
79697;SDS011;69168;42.708;23.286;2023-08-12T07:01:22;4.82;;;3.13;;
79697;SDS011;69168;42.708;23.286;2023-08-12T07:03:48;3.28;;;2.72;;
79697;SDS011;69168;42.708;23.286;2023-08-12T07:06:13;5.32;;;2.83;;
79697;SDS011;69168;42.708;23.286;2023-08-12T07:08:40;6.60;;;2.97;;
79697;SDS011;69168;42.708;23.286;2023-08-12T07:11:05;8.98;;;3.67;;
79697;SDS011;69168;42.708;23.286;2023-08-12T07:13:31;7.63;;;3.80;;
79697;SDS011;69168;42.708;23.286;2023-08-12T07:15:56;7.55;;;4.07;;
79697;SDS011;69168;42.708;23.286;2023-08-12T07:18:21;6.15;;;3.53;;
79697;SDS011;69168;42.708;23.286;2023-08-12T07:20:48;6.03;;;3.55;;
79697;SDS011;69168;42.708;23.286;2023-08-12T07:23:13;8.35;;;3.13;;
79697;SDS011;69168;42.708;23.286;2023-08-12T07:25:39;4.53;;;2.85;;
79697;SDS011;69168;42.708;23.286;2023-08-12T07:28:05;4.70;;;2.38;;
79697;SDS011;69168;42.708;23.286;2023-08-12T07:30:30;5.40;;;3.13;;
79697;SDS011;69168;42.708;23.286;2023-08-12T07:32:56;4.82;;;3.22;;
79697;SDS011;69168;42.708;23.286;2023-08-12T07:35:21;4.13;;;2.78;;
79697;SDS011;69168;42.708;23.286;2023-08-12T07:37:46;5.53;;;3.10;;
79697;SDS011;69168;42.708;23.286;2023-08-12T07:40:12;6.10;;;2.58;;
79697;SDS011;69168;42.708;23.286;2023-08-12T07:42:38;10.90;;;3.90;;
79697;SDS011;69168;42.708;23.286;2023-08-12T07:45:03;4.38;;;3.22;;
79697;SDS011;69168;42.708;23.286;2023-08-12T07:47:30;5.30;;;3.33;;
79697;SDS011;69168;42.708;23.286;2023-08-12T07:49:55;5.70;;;2.80;;
79697;SDS011;69168;42.708;23.286;2023-08-12T07:52:21;5.28;;;3.85;;
79697;SDS011;69168;42.708;23.286;2023-08-12T07:54:46;4.88;;;2.70;;
79697;SDS011;69168;42.708;23.286;2023-08-12T07:57:11;4.32;;;2.35;;
79697;SDS011;69168;42.708;23.286;2023-08-12T07:59:37;4.85;;;2.70;;
79697;SDS011;69168;42.708;23.286;2023-08-12T08:02:02;10.30;;;3.67;;
79697;SDS011;69168;42.708;23.286;2023-08-12T08:04:28;9.43;;;3.10;;
79697;SDS011;69168;42.708;23.286;2023-08-12T08:06:53;5.80;;;2.20;;
79697;SDS011;69168;42.708;23.286;2023-08-12T08:09:19;2.80;;;2.42;;
79697;SDS011;69168;42.708;23.286;2023-08-12T08:11:44;4.35;;;2.65;;
79697;SDS011;69168;42.708;23.286;2023-08-12T08:14:10;5.13;;;2.65;;
79697;SDS011;69168;42.708;23.286;2023-08-12T08:16:35;3.53;;;2.20;;
79697;SDS011;69168;42.708;23.286;2023-08-12T08:19:01;4.45;;;2.63;;
79697;SDS011;69168;42.708;23.286;2023-08-12T08:21:27;2.70;;;2.50;;
79697;SDS011;69168;42.708;23.286;2023-08-12T08:23:52;7.88;;;2.60;;
79697;SDS011;69168;42.708;23.286;2023-08-12T08:26:18;4.25;;;2.28;;
79697;SDS011;69168;42.708;23.286;2023-08-12T08:28:43;4.57;;;2.95;;
79697;SDS011;69168;42.708;23.286;2023-08-12T08:31:09;4.55;;;2.80;;
79697;SDS011;69168;42.708;23.286;2023-08-12T08:33:34;3.50;;;2.90;;
79697;SDS011;69168;42.708;23.286;2023-08-12T08:36:00;5.50;;;2.83;;
79697;SDS011;69168;42.708;23.286;2023-08-12T08:38:25;4.57;;;2.72;;
79697;SDS011;69168;42.708;23.286;2023-08-12T08:40:50;4.22;;;2.47;;
79697;SDS011;69168;42.708;23.286;2023-08-12T08:43:19;4.53;;;2.58;;
79697;SDS011;69168;42.708;23.286;2023-08-12T08:45:46;4.82;;;2.35;;
79697;SDS011;69168;42.708;23.286;2023-08-12T08:48:14;3.90;;;2.05;;
79697;SDS011;69168;42.708;23.286;2023-08-12T08:50:39;3.40;;;2.30;;
79697;SDS011;69168;42.708;23.286;2023-08-12T08:53:07;2.65;;;2.45;;
79697;SDS011;69168;42.708;23.286;2023-08-12T08:55:33;3.70;;;2.65;;
79697;SDS011;69168;42.708;23.286;2023-08-12T08:57:58;6.55;;;3.47;;
79697;SDS011;69168;42.708;23.286;2023-08-12T09:00:25;5.18;;;3.58;;
79697;SDS011;69168;42.708;23.286;2023-08-12T09:02:52;4.32;;;2.83;;
79697;SDS011;69168;42.708;23.286;2023-08-12T09:07:45;5.60;;;2.72;;
79697;SDS011;69168;42.708;23.286;2023-08-12T09:10:12;5.18;;;2.35;;
79697;SDS011;69168;42.708;23.286;2023-08-12T09:12:38;3.60;;;2.85;;
79697;SDS011;69168;42.708;23.286;2023-08-12T09:15:04;4.75;;;2.67;;
79697;SDS011;69168;42.708;23.286;2023-08-12T09:17:31;3.42;;;2.55;;
79697;SDS011;69168;42.708;23.286;2023-08-12T09:19:57;4.10;;;2.58;;
79697;SDS011;69168;42.708;23.286;2023-08-12T09:22:23;3.53;;;2.28;;
79697;SDS011;69168;42.708;23.286;2023-08-12T09:24:50;3.65;;;2.50;;
79697;SDS011;69168;42.708;23.286;2023-08-12T09:27:21;4.15;;;2.67;;
79697;SDS011;69168;42.708;23.286;2023-08-12T09:29:46;4.38;;;2.25;;
79697;SDS011;69168;42.708;23.286;2023-08-12T09:32:13;4.80;;;2.90;;
79697;SDS011;69168;42.708;23.286;2023-08-12T09:34:49;3.17;;;2.15;;
79697;SDS011;69168;42.708;23.286;2023-08-12T09:37:17;4.38;;;2.45;;
79697;SDS011;69168;42.708;23.286;2023-08-12T09:39:44;3.60;;;2.67;;
79697;SDS011;69168;42.708;23.286;2023-08-12T09:42:13;2.35;;;2.15;;
79697;SDS011;69168;42.708;23.286;2023-08-12T09:44:39;6.18;;;2.70;;
79697;SDS011;69168;42.708;23.286;2023-08-12T09:47:06;3.65;;;2.10;;
79697;SDS011;69168;42.708;23.286;2023-08-12T09:49:33;3.13;;;2.25;;
79697;SDS011;69168;42.708;23.286;2023-08-12T09:52:00;4.50;;;2.88;;
79697;SDS011;69168;42.708;23.286;2023-08-12T09:54:27;5.47;;;2.53;;
79697;SDS011;69168;42.708;23.286;2023-08-12T09:56:57;3.90;;;2.25;;
79697;SDS011;69168;42.708;23.286;2023-08-12T09:59:24;5.03;;;2.78;;
79697;SDS011;69168;42.708;23.286;2023-08-12T10:01:55;5.32;;;2.40;;
79697;SDS011;69168;42.708;23.286;2023-08-12T10:04:23;4.18;;;2.30;;
79697;SDS011;69168;42.708;23.286;2023-08-12T10:06:53;5.15;;;3.05;;
79697;SDS011;69168;42.708;23.286;2023-08-12T10:09:20;3.88;;;2.35;;
79697;SDS011;69168;42.708;23.286;2023-08-12T10:11:46;2.22;;;1.85;;
79697;SDS011;69168;42.708;23.286;2023-08-12T10:14:12;4.78;;;2.58;;
79697;SDS011;69168;42.708;23.286;2023-08-12T10:16:38;3.75;;;2.20;;
79697;SDS011;69168;42.708;23.286;2023-08-12T10:21:30;2.65;;;2.42;;
79697;SDS011;69168;42.708;23.286;2023-08-12T10:23:57;2.42;;;2.22;;
79697;SDS011;69168;42.708;23.286;2023-08-12T10:26:26;2.28;;;2.05;;
79697;SDS011;69168;42.708;23.286;2023-08-12T10:28:53;3.40;;;2.10;;
79697;SDS011;69168;42.708;23.286;2023-08-12T10:31:19;3.20;;;2.55;;
79697;SDS011;69168;42.708;23.286;2023-08-12T10:33:45;2.55;;;2.17;;
79697;SDS011;69168;42.708;23.286;2023-08-12T10:36:14;3.25;;;2.05;;
79697;SDS011;69168;42.708;23.286;2023-08-12T10:38:40;4.35;;;2.05;;
79697;SDS011;69168;42.708;23.286;2023-08-12T10:41:19;2.35;;;1.90;;
79697;SDS011;69168;42.708;23.286;2023-08-12T10:46:28;3.53;;;2.20;;
79697;SDS011;69168;42.708;23.286;2023-08-12T10:57:04;8.57;;;3.60;;
79697;SDS011;69168;42.708;23.286;2023-08-12T11:02:17;2.50;;;2.00;;
79697;SDS011;69168;42.708;23.286;2023-08-12T11:04:48;4.95;;;3.17;;
79697;SDS011;69168;42.708;23.286;2023-08-12T11:12:35;4.05;;;3.28;;
79697;SDS011;69168;42.708;23.286;2023-08-12T11:15:02;3.58;;;2.00;;
79697;SDS011;69168;42.708;23.286;2023-08-12T11:17:38;2.70;;;1.70;;
79697;SDS011;69168;42.708;23.286;2023-08-12T11:20:09;3.67;;;3.03;;
79697;SDS011;69168;42.708;23.286;2023-08-12T11:22:45;3.15;;;1.98;;
79697;SDS011;69168;42.708;23.286;2023-08-12T11:25:12;1.95;;;1.75;;
79697;SDS011;69168;42.708;23.286;2023-08-12T11:27:40;2.30;;;2.10;;
79697;SDS011;69168;42.708;23.286;2023-08-12T11:30:08;3.85;;;2.40;;
79697;SDS011;69168;42.708;23.286;2023-08-12T11:32:35;4.93;;;2.40;;
79697;SDS011;69168;42.708;23.286;2023-08-12T11:35:02;2.53;;;2.05;;
79697;SDS011;69168;42.708;23.286;2023-08-12T11:37:30;2.78;;;2.50;;
79697;SDS011;69168;42.708;23.286;2023-08-12T11:39:56;2.17;;;1.85;;
79697;SDS011;69168;42.708;23.286;2023-08-12T11:42:21;3.35;;;2.00;;
79697;SDS011;69168;42.708;23.286;2023-08-12T11:44:47;6.85;;;1.90;;
79697;SDS011;69168;42.708;23.286;2023-08-12T11:47:12;3.50;;;1.90;;
79697;SDS011;69168;42.708;23.286;2023-08-12T11:49:38;4.18;;;2.03;;
79697;SDS011;69168;42.708;23.286;2023-08-12T11:52:03;6.45;;;1.95;;
79697;SDS011;69168;42.708;23.286;2023-08-12T11:54:29;2.08;;;1.83;;
79697;SDS011;69168;42.708;23.286;2023-08-12T11:56:55;2.42;;;1.80;;
79697;SDS011;69168;42.708;23.286;2023-08-12T11:59:22;2.03;;;1.83;;
79697;SDS011;69168;42.708;23.286;2023-08-12T12:04:16;2.65;;;2.35;;
79697;SDS011;69168;42.708;23.286;2023-08-12T12:06:45;2.63;;;2.25;;
79697;SDS011;69168;42.708;23.286;2023-08-12T12:09:12;3.88;;;2.03;;
79697;SDS011;69168;42.708;23.286;2023-08-12T12:11:39;2.17;;;1.90;;
79697;SDS011;69168;42.708;23.286;2023-08-12T12:14:06;2.90;;;1.95;;
79697;SDS011;69168;42.708;23.286;2023-08-12T12:16:41;3.30;;;1.88;;
79697;SDS011;69168;42.708;23.286;2023-08-12T12:19:18;2.63;;;1.75;;
79697;SDS011;69168;42.708;23.286;2023-08-12T12:21:45;2.50;;;2.10;;
79697;SDS011;69168;42.708;23.286;2023-08-12T12:24:14;8.02;;;2.03;;
79697;SDS011;69168;42.708;23.286;2023-08-12T12:29:06;2.10;;;1.90;;
79697;SDS011;69168;42.708;23.286;2023-08-12T12:31:33;2.92;;;1.70;;
79697;SDS011;69168;42.708;23.286;2023-08-12T12:34:00;2.08;;;1.73;;
79697;SDS011;69168;42.708;23.286;2023-08-12T12:36:26;2.83;;;1.70;;
79697;SDS011;69168;42.708;23.286;2023-08-12T12:38:52;2.75;;;1.90;;
79697;SDS011;69168;42.708;23.286;2023-08-12T12:43:43;4.00;;;2.08;;
79697;SDS011;69168;42.708;23.286;2023-08-12T12:46:08;2.20;;;2.00;;
79697;SDS011;69168;42.708;23.286;2023-08-12T12:50:59;3.97;;;1.83;;
79697;SDS011;69168;42.708;23.286;2023-08-12T12:53:25;2.17;;;1.73;;
79697;SDS011;69168;42.708;23.286;2023-08-12T12:55:50;3.00;;;2.70;;
79697;SDS011;69168;42.708;23.286;2023-08-12T13:00:42;5.20;;;2.92;;
79697;SDS011;69168;42.708;23.286;2023-08-12T13:05:32;4.77;;;2.23;;
79697;SDS011;69168;42.708;23.286;2023-08-12T13:10:23;3.53;;;2.70;;
79697;SDS011;69168;42.708;23.286;2023-08-12T13:15:14;2.83;;;1.80;;
79697;SDS011;69168;42.708;23.286;2023-08-12T13:20:05;3.03;;;1.85;;
79697;SDS011;69168;42.708;23.286;2023-08-12T13:22:31;2.25;;;1.73;;
79697;SDS011;69168;42.708;23.286;2023-08-12T13:27:22;2.57;;;2.10;;
79697;SDS011;69168;42.708;23.286;2023-08-12T13:29:48;2.55;;;2.25;;
79697;SDS011;69168;42.708;23.286;2023-08-12T13:34:39;2.10;;;1.90;;
79697;SDS011;69168;42.708;23.286;2023-08-12T13:39:30;2.00;;;1.73;;
79697;SDS011;69168;42.708;23.286;2023-08-12T13:41:56;3.20;;;2.17;;
79697;SDS011;69168;42.708;23.286;2023-08-12T13:46:47;2.23;;;1.70;;
79697;SDS011;69168;42.708;23.286;2023-08-12T13:49:12;2.63;;;2.25;;
79697;SDS011;69168;42.708;23.286;2023-08-12T13:51:37;3.47;;;1.83;;
79697;SDS011;69168;42.708;23.286;2023-08-12T13:54:03;3.17;;;1.92;;
79697;SDS011;69168;42.708;23.286;2023-08-12T13:56:29;5.32;;;1.90;;
79697;SDS011;69168;42.708;23.286;2023-08-12T13:58:54;1.98;;;1.50;;
79697;SDS011;69168;42.708;23.286;2023-08-12T14:01:21;4.43;;;1.63;;
79697;SDS011;69168;42.708;23.286;2023-08-12T14:03:46;2.10;;;1.73;;
79697;SDS011;69168;42.708;23.286;2023-08-12T14:06:12;4.00;;;1.77;;
79697;SDS011;69168;42.708;23.286;2023-08-12T14:08:37;2.80;;;1.55;;
79697;SDS011;69168;42.708;23.286;2023-08-12T14:11:03;3.10;;;1.80;;
79697;SDS011;69168;42.708;23.286;2023-08-12T14:13:28;4.80;;;1.92;;
79697;SDS011;69168;42.708;23.286;2023-08-12T14:15:54;2.95;;;2.10;;
79697;SDS011;69168;42.708;23.286;2023-08-12T14:20:45;1.90;;;1.70;;
79697;SDS011;69168;42.708;23.286;2023-08-12T14:25:35;4.17;;;1.60;;
79697;SDS011;69168;42.708;23.286;2023-08-12T14:30:26;2.40;;;1.60;;
79697;SDS011;69168;42.708;23.286;2023-08-12T14:35:17;3.20;;;2.58;;
79697;SDS011;69168;42.708;23.286;2023-08-12T14:37:43;2.42;;;1.85;;
79697;SDS011;69168;42.708;23.286;2023-08-12T14:42:34;1.63;;;1.52;;
79697;SDS011;69168;42.708;23.286;2023-08-12T14:47:25;5.18;;;2.92;;
79697;SDS011;69168;42.708;23.286;2023-08-12T14:49:51;4.07;;;2.90;;
79697;SDS011;69168;42.708;23.286;2023-08-12T14:52:18;4.18;;;1.85;;
79697;SDS011;69168;42.708;23.286;2023-08-12T14:54:44;4.18;;;3.45;;
79697;SDS011;69168;42.708;23.286;2023-08-12T14:57:10;3.53;;;1.85;;
79697;SDS011;69168;42.708;23.286;2023-08-12T14:59:36;2.30;;;1.67;;
79697;SDS011;69168;42.708;23.286;2023-08-12T15:02:01;4.82;;;2.00;;
79697;SDS011;69168;42.708;23.286;2023-08-12T15:04:27;6.32;;;4.13;;
79697;SDS011;69168;42.708;23.286;2023-08-12T15:06:52;2.78;;;2.00;;
79697;SDS011;69168;42.708;23.286;2023-08-12T15:09:18;2.30;;;2.03;;
79697;SDS011;69168;42.708;23.286;2023-08-12T15:11:43;2.92;;;2.08;;
79697;SDS011;69168;42.708;23.286;2023-08-12T15:14:09;2.17;;;1.83;;
79697;SDS011;69168;42.708;23.286;2023-08-12T15:16:35;3.55;;;2.28;;
79697;SDS011;69168;42.708;23.286;2023-08-12T15:19:01;2.10;;;1.90;;
79697;SDS011;69168;42.708;23.286;2023-08-12T15:21:27;1.73;;;1.63;;
79697;SDS011;69168;42.708;23.286;2023-08-12T15:23:52;2.40;;;2.00;;
79697;SDS011;69168;42.708;23.286;2023-08-12T15:26:18;3.10;;;1.80;;
79697;SDS011;69168;42.708;23.286;2023-08-12T15:28:43;3.45;;;2.22;;
79697;SDS011;69168;42.708;23.286;2023-08-12T15:31:10;4.10;;;2.33;;
79697;SDS011;69168;42.708;23.286;2023-08-12T15:33:37;2.92;;;2.17;;
79697;SDS011;69168;42.708;23.286;2023-08-12T15:36:03;3.47;;;2.17;;
79697;SDS011;69168;42.708;23.286;2023-08-12T15:38:29;2.22;;;2.03;;
79697;SDS011;69168;42.708;23.286;2023-08-12T15:40:54;3.33;;;2.40;;
79697;SDS011;69168;42.708;23.286;2023-08-12T15:43:20;2.25;;;2.05;;
79697;SDS011;69168;42.708;23.286;2023-08-12T15:45:45;2.08;;;1.88;;